sensor_id;sensor_type;location;lat;lon;timestamp;pressure;altitude;pressure_sealevel;temperature;humidity
20624;BME280;10471;42.736;23.346;2022-10-16T00:00:35;96208.88;;;7.44;100.00
20624;BME280;10471;42.736;23.346;2022-10-16T00:03:01;96214.56;;;7.41;100.00
20624;BME280;10471;42.736;23.346;2022-10-16T00:05:27;96216.19;;;7.42;100.00
20624;BME280;10471;42.736;23.346;2022-10-16T00:07:52;96220.63;;;7.41;100.00
20624;BME280;10471;42.736;23.346;2022-10-16T00:10:18;96222.69;;;7.39;100.00
20624;BME280;10471;42.736;23.346;2022-10-16T00:12:43;96220.31;;;7.38;100.00
20624;BME280;10471;42.736;23.346;2022-10-16T00:15:09;96229.63;;;7.34;100.00
20624;BME280;10471;42.736;23.346;2022-10-16T00:17:34;96230.59;;;7.28;100.00
20624;BME280;10471;42.736;23.346;2022-10-16T00:20:00;96227.97;;;7.28;100.00
20624;BME280;10471;42.736;23.346;2022-10-16T00:22:25;96231.63;;;7.27;100.00
20624;BME280;10471;42.736;23.346;2022-10-16T00:24:51;96235.38;;;7.31;100.00
20624;BME280;10471;42.736;23.346;2022-10-16T00:27:16;96234.69;;;7.24;100.00
20624;BME280;10471;42.736;23.346;2022-10-16T00:29:42;96237.22;;;7.19;100.00
20624;BME280;10471;42.736;23.346;2022-10-16T00:32:08;96235.41;;;7.19;100.00
20624;BME280;10471;42.736;23.346;2022-10-16T00:34:33;96238.94;;;7.14;100.00
20624;BME280;10471;42.736;23.346;2022-10-16T00:36:59;96240.34;;;7.05;100.00
20624;BME280;10471;42.736;23.346;2022-10-16T00:39:24;96243.19;;;7.03;100.00
20624;BME280;10471;42.736;23.346;2022-10-16T00:41:50;96243.06;;;6.98;100.00
20624;BME280;10471;42.736;23.346;2022-10-16T00:49:43;96233.31;;;6.94;100.00
20624;BME280;10471;42.736;23.346;2022-10-16T00:52:10;96236.13;;;6.92;100.00
20624;BME280;10471;42.736;23.346;2022-10-16T00:54:35;96228.28;;;6.92;100.00
20624;BME280;10471;42.736;23.346;2022-10-16T00:57:05;96233.41;;;6.87;100.00
20624;BME280;10471;42.736;23.346;2022-10-16T00:59:37;96235.00;;;6.88;100.00
20624;BME280;10471;42.736;23.346;2022-10-16T01:02:08;96241.75;;;6.84;100.00
20624;BME280;10471;42.736;23.346;2022-10-16T01:04:41;96245.63;;;6.82;100.00
20624;BME280;10471;42.736;23.346;2022-10-16T01:10:02;96252.13;;;6.79;100.00
20624;BME280;10471;42.736;23.346;2022-10-16T01:12:40;96252.13;;;6.79;100.00
20624;BME280;10471;42.736;23.346;2022-10-16T01:17:43;96251.53;;;6.77;100.00
20624;BME280;10471;42.736;23.346;2022-10-16T01:23:59;96246.66;;;6.69;100.00
20624;BME280;10471;42.736;23.346;2022-10-16T01:26:13;96233.78;;;6.56;100.00
20624;BME280;10471;42.736;23.346;2022-10-16T01:31:24;96240.97;;;6.50;100.00
20624;BME280;10471;42.736;23.346;2022-10-16T01:34:18;96235.75;;;6.50;100.00
20624;BME280;10471;42.736;23.346;2022-10-16T01:36:49;96245.19;;;6.51;100.00
20624;BME280;10471;42.736;23.346;2022-10-16T01:39:19;96243.84;;;6.48;100.00
20624;BME280;10471;42.736;23.346;2022-10-16T01:41:50;96241.41;;;6.47;100.00
20624;BME280;10471;42.736;23.346;2022-10-16T01:44:22;96249.50;;;6.45;100.00
20624;BME280;10471;42.736;23.346;2022-10-16T01:46:52;96252.00;;;6.40;100.00
20624;BME280;10471;42.736;23.346;2022-10-16T01:49:20;96253.72;;;6.35;100.00
20624;BME280;10471;42.736;23.346;2022-10-16T01:51:50;96253.25;;;6.38;100.00
20624;BME280;10471;42.736;23.346;2022-10-16T01:54:18;96256.66;;;6.38;100.00
20624;BME280;10471;42.736;23.346;2022-10-16T01:56:45;96257.47;;;6.39;100.00
20624;BME280;10471;42.736;23.346;2022-10-16T01:59:16;96261.00;;;6.33;100.00
20624;BME280;10471;42.736;23.346;2022-10-16T02:01:48;96259.06;;;6.28;100.00
20624;BME280;10471;42.736;23.346;2022-10-16T02:04:36;96257.69;;;6.26;100.00
20624;BME280;10471;42.736;23.346;2022-10-16T02:07:02;96262.81;;;6.21;100.00
20624;BME280;10471;42.736;23.346;2022-10-16T02:09:29;96267.47;;;6.19;100.00
20624;BME280;10471;42.736;23.346;2022-10-16T02:11:57;96267.91;;;6.16;100.00
20624;BME280;10471;42.736;23.346;2022-10-16T02:14:24;96273.38;;;6.14;100.00
20624;BME280;10471;42.736;23.346;2022-10-16T02:16:50;96280.63;;;6.12;100.00
20624;BME280;10471;42.736;23.346;2022-10-16T02:19:17;96269.84;;;6.09;100.00
20624;BME280;10471;42.736;23.346;2022-10-16T02:21:54;96281.75;;;6.05;100.00
20624;BME280;10471;42.736;23.346;2022-10-16T02:27:14;96278.13;;;5.94;100.00
20624;BME280;10471;42.736;23.346;2022-10-16T02:29:47;96286.19;;;5.93;100.00
20624;BME280;10471;42.736;23.346;2022-10-16T02:32:17;96289.81;;;5.92;100.00
20624;BME280;10471;42.736;23.346;2022-10-16T02:34:46;96288.69;;;5.88;100.00
20624;BME280;10471;42.736;23.346;2022-10-16T02:37:13;96289.09;;;5.85;100.00
20624;BME280;10471;42.736;23.346;2022-10-16T02:39:40;96289.78;;;5.81;100.00
20624;BME280;10471;42.736;23.346;2022-10-16T02:42:13;96289.22;;;5.79;100.00
20624;BME280;10471;42.736;23.346;2022-10-16T02:44:38;96287.03;;;5.76;100.00
20624;BME280;10471;42.736;23.346;2022-10-16T02:47:04;96289.84;;;5.74;100.00
20624;BME280;10471;42.736;23.346;2022-10-16T02:49:29;96303.00;;;5.68;100.00
20624;BME280;10471;42.736;23.346;2022-10-16T02:51:55;96296.84;;;5.62;100.00
20624;BME280;10471;42.736;23.346;2022-10-16T02:54:20;96298.75;;;5.55;100.00
20624;BME280;10471;42.736;23.346;2022-10-16T02:56:46;96304.34;;;5.59;100.00
20624;BME280;10471;42.736;23.346;2022-10-16T02:59:11;96308.31;;;5.61;100.00
20624;BME280;10471;42.736;23.346;2022-10-16T03:01:36;96307.09;;;5.64;100.00
20624;BME280;10471;42.736;23.346;2022-10-16T03:04:02;96307.50;;;5.61;100.00
20624;BME280;10471;42.736;23.346;2022-10-16T03:06:27;96299.13;;;5.59;100.00
20624;BME280;10471;42.736;23.346;2022-10-16T03:08:53;96307.75;;;5.59;100.00
20624;BME280;10471;42.736;23.346;2022-10-16T03:11:18;96303.19;;;5.55;100.00
20624;BME280;10471;42.736;23.346;2022-10-16T03:13:43;96308.94;;;5.45;100.00
20624;BME280;10471;42.736;23.346;2022-10-16T03:16:09;96314.03;;;5.40;100.00
20624;BME280;10471;42.736;23.346;2022-10-16T03:18:34;96313.75;;;5.30;100.00
20624;BME280;10471;42.736;23.346;2022-10-16T03:21:00;96316.34;;;5.30;100.00
20624;BME280;10471;42.736;23.346;2022-10-16T03:23:25;96312.56;;;5.26;100.00
20624;BME280;10471;42.736;23.346;2022-10-16T03:25:51;96310.41;;;5.23;100.00
20624;BME280;10471;42.736;23.346;2022-10-16T03:28:17;96323.69;;;5.22;100.00
20624;BME280;10471;42.736;23.346;2022-10-16T03:30:43;96316.41;;;5.24;100.00
20624;BME280;10471;42.736;23.346;2022-10-16T03:33:08;96324.06;;;5.25;100.00
20624;BME280;10471;42.736;23.346;2022-10-16T03:35:34;96318.81;;;5.25;100.00
20624;BME280;10471;42.736;23.346;2022-10-16T03:37:59;96318.47;;;5.22;100.00
20624;BME280;10471;42.736;23.346;2022-10-16T03:40:25;96311.41;;;5.22;100.00
20624;BME280;10471;42.736;23.346;2022-10-16T03:42:50;96317.88;;;5.20;100.00
20624;BME280;10471;42.736;23.346;2022-10-16T03:45:16;96317.66;;;5.21;100.00
20624;BME280;10471;42.736;23.346;2022-10-16T03:47:41;96317.31;;;5.18;100.00
20624;BME280;10471;42.736;23.346;2022-10-16T03:50:07;96314.25;;;5.21;100.00
20624;BME280;10471;42.736;23.346;2022-10-16T03:52:32;96312.09;;;5.18;100.00
20624;BME280;10471;42.736;23.346;2022-10-16T03:54:58;96306.63;;;5.19;100.00
20624;BME280;10471;42.736;23.346;2022-10-16T03:57:23;96311.72;;;5.15;100.00
20624;BME280;10471;42.736;23.346;2022-10-16T03:59:48;96309.66;;;5.17;100.00
20624;BME280;10471;42.736;23.346;2022-10-16T04:02:14;96309.09;;;5.15;100.00
20624;BME280;10471;42.736;23.346;2022-10-16T04:04:39;96318.97;;;5.13;100.00
20624;BME280;10471;42.736;23.346;2022-10-16T04:07:04;96312.13;;;5.12;100.00
20624;BME280;10471;42.736;23.346;2022-10-16T04:09:30;96318.97;;;5.13;100.00
20624;BME280;10471;42.736;23.346;2022-10-16T04:11:55;96321.00;;;5.11;100.00
20624;BME280;10471;42.736;23.346;2022-10-16T04:14:21;96319.41;;;5.10;100.00
20624;BME280;10471;42.736;23.346;2022-10-16T04:16:46;96317.03;;;5.08;100.00
20624;BME280;10471;42.736;23.346;2022-10-16T04:19:11;96316.19;;;5.08;100.00
20624;BME280;10471;42.736;23.346;2022-10-16T04:21:37;96327.09;;;5.05;100.00
20624;BME280;10471;42.736;23.346;2022-10-16T04:24:03;96324.03;;;5.08;100.00
20624;BME280;10471;42.736;23.346;2022-10-16T04:26:29;96322.59;;;5.12;100.00
20624;BME280;10471;42.736;23.346;2022-10-16T04:28:54;96321.56;;;5.13;100.00
20624;BME280;10471;42.736;23.346;2022-10-16T04:31:20;96325.00;;;5.13;100.00
20624;BME280;10471;42.736;23.346;2022-10-16T04:33:45;96323.63;;;5.11;100.00
20624;BME280;10471;42.736;23.346;2022-10-16T04:36:11;96321.19;;;5.09;100.00
20624;BME280;10471;42.736;23.346;2022-10-16T04:38:36;96339.47;;;5.09;100.00
20624;BME280;10471;42.736;23.346;2022-10-16T04:41:03;96334.72;;;5.06;100.00
20624;BME280;10471;42.736;23.346;2022-10-16T04:43:28;96328.25;;;5.09;100.00
20624;BME280;10471;42.736;23.346;2022-10-16T04:45:54;96340.31;;;5.10;100.00
20624;BME280;10471;42.736;23.346;2022-10-16T04:48:20;96332.25;;;5.11;100.00
20624;BME280;10471;42.736;23.346;2022-10-16T04:50:45;96344.06;;;5.14;100.00
20624;BME280;10471;42.736;23.346;2022-10-16T04:53:11;96342.47;;;5.13;100.00
20624;BME280;10471;42.736;23.346;2022-10-16T04:55:37;96347.69;;;5.13;100.00
20624;BME280;10471;42.736;23.346;2022-10-16T04:58:03;96345.06;;;5.13;100.00
20624;BME280;10471;42.736;23.346;2022-10-16T05:00:28;96349.50;;;5.12;100.00
20624;BME280;10471;42.736;23.346;2022-10-16T05:02:54;96358.72;;;5.15;100.00
20624;BME280;10471;42.736;23.346;2022-10-16T05:05:19;96357.13;;;5.14;100.00
20624;BME280;10471;42.736;23.346;2022-10-16T05:07:46;96356.13;;;5.15;100.00
20624;BME280;10471;42.736;23.346;2022-10-16T05:10:11;96358.28;;;5.18;100.00
20624;BME280;10471;42.736;23.346;2022-10-16T05:12:37;96354.44;;;5.20;100.00
20624;BME280;10471;42.736;23.346;2022-10-16T05:15:03;96357.41;;;5.23;100.00
20624;BME280;10471;42.736;23.346;2022-10-16T05:17:28;96361.19;;;5.27;100.00
20624;BME280;10471;42.736;23.346;2022-10-16T05:19:54;96365.41;;;5.28;100.00
20624;BME280;10471;42.736;23.346;2022-10-16T05:22:20;96368.59;;;5.30;100.00
20624;BME280;10471;42.736;23.346;2022-10-16T05:24:45;96365.78;;;5.32;100.00
20624;BME280;10471;42.736;23.346;2022-10-16T05:27:11;96367.16;;;5.34;100.00
20624;BME280;10471;42.736;23.346;2022-10-16T05:29:46;96372.97;;;5.36;100.00
20624;BME280;10471;42.736;23.346;2022-10-16T05:32:13;96374.13;;;5.40;100.00
20624;BME280;10471;42.736;23.346;2022-10-16T05:34:38;96378.91;;;5.43;100.00
20624;BME280;10471;42.736;23.346;2022-10-16T05:37:03;96381.66;;;5.48;100.00
20624;BME280;10471;42.736;23.346;2022-10-16T05:39:29;96385.00;;;5.55;100.00
20624;BME280;10471;42.736;23.346;2022-10-16T05:41:54;96377.88;;;5.62;100.00
20624;BME280;10471;42.736;23.346;2022-10-16T05:44:20;96377.81;;;5.69;100.00
20624;BME280;10471;42.736;23.346;2022-10-16T05:46:46;96380.94;;;5.77;100.00
20624;BME280;10471;42.736;23.346;2022-10-16T05:49:11;96378.47;;;5.82;100.00
20624;BME280;10471;42.736;23.346;2022-10-16T05:51:37;96391.69;;;5.87;100.00
20624;BME280;10471;42.736;23.346;2022-10-16T05:54:02;96395.94;;;5.99;100.00
20624;BME280;10471;42.736;23.346;2022-10-16T05:56:27;96393.38;;;6.11;100.00
20624;BME280;10471;42.736;23.346;2022-10-16T05:58:53;96390.78;;;6.22;100.00
20624;BME280;10471;42.736;23.346;2022-10-16T06:01:19;96393.09;;;6.30;100.00
20624;BME280;10471;42.736;23.346;2022-10-16T06:03:45;96400.28;;;6.35;100.00
20624;BME280;10471;42.736;23.346;2022-10-16T06:06:16;96403.03;;;6.40;100.00
20624;BME280;10471;42.736;23.346;2022-10-16T06:08:42;96410.91;;;6.51;100.00
20624;BME280;10471;42.736;23.346;2022-10-16T06:11:11;96410.25;;;6.55;100.00
20624;BME280;10471;42.736;23.346;2022-10-16T06:13:37;96415.28;;;6.68;100.00
20624;BME280;10471;42.736;23.346;2022-10-16T06:16:04;96421.78;;;6.77;100.00
20624;BME280;10471;42.736;23.346;2022-10-16T06:18:30;96421.69;;;6.84;100.00
20624;BME280;10471;42.736;23.346;2022-10-16T06:20:56;96416.34;;;6.90;100.00
20624;BME280;10471;42.736;23.346;2022-10-16T06:23:22;96421.81;;;7.00;100.00
20624;BME280;10471;42.736;23.346;2022-10-16T06:25:48;96428.31;;;7.09;100.00
20624;BME280;10471;42.736;23.346;2022-10-16T06:28:14;96432.75;;;7.20;100.00
20624;BME280;10471;42.736;23.346;2022-10-16T06:30:40;96430.94;;;7.32;100.00
20624;BME280;10471;42.736;23.346;2022-10-16T06:33:05;96427.88;;;7.46;100.00
20624;BME280;10471;42.736;23.346;2022-10-16T06:35:30;96426.25;;;7.57;100.00
20624;BME280;10471;42.736;23.346;2022-10-16T06:37:57;96437.97;;;7.66;100.00
20624;BME280;10471;42.736;23.346;2022-10-16T06:40:22;96442.97;;;7.79;100.00
20624;BME280;10471;42.736;23.346;2022-10-16T06:42:48;96440.47;;;7.83;100.00
20624;BME280;10471;42.736;23.346;2022-10-16T06:45:13;96441.59;;;7.87;100.00
20624;BME280;10471;42.736;23.346;2022-10-16T06:47:39;96444.06;;;7.94;100.00
20624;BME280;10471;42.736;23.346;2022-10-16T06:50:04;96445.19;;;8.09;100.00
20624;BME280;10471;42.736;23.346;2022-10-16T06:52:32;96447.56;;;8.22;100.00
20624;BME280;10471;42.736;23.346;2022-10-16T06:54:58;96449.16;;;8.23;100.00
20624;BME280;10471;42.736;23.346;2022-10-16T06:57:23;96455.19;;;8.35;100.00
20624;BME280;10471;42.736;23.346;2022-10-16T06:59:49;96458.47;;;8.42;100.00
20624;BME280;10471;42.736;23.346;2022-10-16T07:02:14;96457.16;;;8.56;100.00
20624;BME280;10471;42.736;23.346;2022-10-16T07:04:40;96456.06;;;8.68;100.00
20624;BME280;10471;42.736;23.346;2022-10-16T07:07:05;96458.16;;;8.83;100.00
20624;BME280;10471;42.736;23.346;2022-10-16T07:09:30;96459.69;;;8.95;100.00
20624;BME280;10471;42.736;23.346;2022-10-16T07:11:56;96453.88;;;9.10;100.00
20624;BME280;10471;42.736;23.346;2022-10-16T07:14:22;96469.31;;;9.22;100.00
20624;BME280;10471;42.736;23.346;2022-10-16T07:16:47;96469.81;;;9.36;100.00
20624;BME280;10471;42.736;23.346;2022-10-16T07:19:14;96470.75;;;9.46;100.00
20624;BME280;10471;42.736;23.346;2022-10-16T07:21:41;96468.81;;;9.58;100.00
20624;BME280;10471;42.736;23.346;2022-10-16T07:24:11;96465.28;;;9.69;100.00
20624;BME280;10471;42.736;23.346;2022-10-16T07:26:38;96467.59;;;9.82;100.00
20624;BME280;10471;42.736;23.346;2022-10-16T07:29:06;96471.94;;;9.93;100.00
20624;BME280;10471;42.736;23.346;2022-10-16T07:31:31;96471.13;;;10.09;100.00
20624;BME280;10471;42.736;23.346;2022-10-16T07:33:59;96476.53;;;10.19;100.00
20624;BME280;10471;42.736;23.346;2022-10-16T07:36:24;96468.00;;;10.33;100.00
20624;BME280;10471;42.736;23.346;2022-10-16T07:38:50;96472.09;;;10.45;100.00
20624;BME280;10471;42.736;23.346;2022-10-16T07:41:18;96465.88;;;10.56;100.00
20624;BME280;10471;42.736;23.346;2022-10-16T07:43:48;96471.25;;;10.66;100.00
20624;BME280;10471;42.736;23.346;2022-10-16T07:46:14;96477.97;;;10.79;100.00
20624;BME280;10471;42.736;23.346;2022-10-16T07:48:41;96474.13;;;10.86;100.00
20624;BME280;10471;42.736;23.346;2022-10-16T07:51:11;96464.19;;;10.98;100.00
20624;BME280;10471;42.736;23.346;2022-10-16T07:53:37;96474.84;;;11.08;100.00
20624;BME280;10471;42.736;23.346;2022-10-16T07:56:05;96479.16;;;11.19;100.00
20624;BME280;10471;42.736;23.346;2022-10-16T07:58:31;96482.84;;;11.18;100.00
20624;BME280;10471;42.736;23.346;2022-10-16T08:00:57;96480.06;;;11.29;100.00
20624;BME280;10471;42.736;23.346;2022-10-16T08:03:23;96480.91;;;11.40;100.00
20624;BME280;10471;42.736;23.346;2022-10-16T08:05:49;96476.81;;;11.54;100.00
20624;BME280;10471;42.736;23.346;2022-10-16T08:08:16;96472.13;;;11.61;100.00
20624;BME280;10471;42.736;23.346;2022-10-16T08:10:41;96470.59;;;11.70;100.00
20624;BME280;10471;42.736;23.346;2022-10-16T08:13:07;96467.53;;;11.82;100.00
20624;BME280;10471;42.736;23.346;2022-10-16T08:15:32;96469.78;;;12.10;100.00
20624;BME280;10471;42.736;23.346;2022-10-16T08:18:00;96472.47;;;12.15;100.00
20624;BME280;10471;42.736;23.346;2022-10-16T08:20:26;96469.34;;;12.28;100.00
20624;BME280;10471;42.736;23.346;2022-10-16T08:22:53;96468.88;;;12.41;100.00
20624;BME280;10471;42.736;23.346;2022-10-16T08:25:20;96458.31;;;12.51;100.00
20624;BME280;10471;42.736;23.346;2022-10-16T08:27:46;96461.00;;;12.66;100.00
20624;BME280;10471;42.736;23.346;2022-10-16T08:30:12;96461.31;;;12.79;100.00
20624;BME280;10471;42.736;23.346;2022-10-16T08:32:37;96461.63;;;12.93;100.00
20624;BME280;10471;42.736;23.346;2022-10-16T08:35:03;96457.41;;;13.07;100.00
20624;BME280;10471;42.736;23.346;2022-10-16T08:37:32;96459.50;;;13.14;100.00
20624;BME280;10471;42.736;23.346;2022-10-16T08:39:58;96455.81;;;13.25;100.00
20624;BME280;10471;42.736;23.346;2022-10-16T08:48:51;96455.28;;;13.58;100.00
20624;BME280;10471;42.736;23.346;2022-10-16T08:51:29;96460.56;;;13.68;100.00
20624;BME280;10471;42.736;23.346;2022-10-16T08:53:57;96467.41;;;13.89;100.00
20624;BME280;10471;42.736;23.346;2022-10-16T08:56:25;96469.53;;;13.97;100.00
20624;BME280;10471;42.736;23.346;2022-10-16T08:58:53;96461.56;;;14.02;100.00
20624;BME280;10471;42.736;23.346;2022-10-16T09:01:21;96465.28;;;14.16;100.00
20624;BME280;10471;42.736;23.346;2022-10-16T09:17:12;96453.84;;;14.78;89.46
20624;BME280;10471;42.736;23.346;2022-10-16T09:19:46;96453.84;;;14.78;91.11
20624;BME280;10471;42.736;23.346;2022-10-16T09:22:16;96459.09;;;14.88;89.19
20624;BME280;10471;42.736;23.346;2022-10-16T09:24:42;96459.06;;;14.93;90.78
20624;BME280;10471;42.736;23.346;2022-10-16T09:27:12;96457.19;;;14.94;92.24
20624;BME280;10471;42.736;23.346;2022-10-16T09:29:38;96457.34;;;15.12;92.65
20624;BME280;10471;42.736;23.346;2022-10-16T09:32:12;96454.09;;;15.20;86.98
20624;BME280;10471;42.736;23.346;2022-10-16T09:34:42;96451.97;;;15.27;85.36
20624;BME280;10471;42.736;23.346;2022-10-16T09:37:11;96458.50;;;15.39;87.71
20624;BME280;10471;42.736;23.346;2022-10-16T09:39:49;96446.16;;;15.53;86.50
20624;BME280;10471;42.736;23.346;2022-10-16T09:42:35;96457.44;;;15.69;85.27
20624;BME280;10471;42.736;23.346;2022-10-16T09:45:03;96449.44;;;15.74;84.31
20624;BME280;10471;42.736;23.346;2022-10-16T09:47:30;96444.47;;;15.90;79.78
20624;BME280;10471;42.736;23.346;2022-10-16T09:50:02;96445.22;;;15.96;75.82
20624;BME280;10471;42.736;23.346;2022-10-16T09:52:31;96442.00;;;15.99;74.44
20624;BME280;10471;42.736;23.346;2022-10-16T09:54:59;96438.97;;;16.05;77.53
20624;BME280;10471;42.736;23.346;2022-10-16T09:57:26;96435.19;;;16.11;69.16
20624;BME280;10471;42.736;23.346;2022-10-16T09:59:55;96431.47;;;16.12;70.43
20624;BME280;10471;42.736;23.346;2022-10-16T10:02:33;96434.66;;;16.14;74.33
20624;BME280;10471;42.736;23.346;2022-10-16T10:05:00;96430.06;;;16.20;76.50
20624;BME280;10471;42.736;23.346;2022-10-16T10:07:33;96436.75;;;16.41;78.62
20624;BME280;10471;42.736;23.346;2022-10-16T10:10:03;96431.13;;;16.42;68.15
20624;BME280;10471;42.736;23.346;2022-10-16T10:12:32;96430.81;;;16.48;67.95
20624;BME280;10471;42.736;23.346;2022-10-16T10:15:20;96428.78;;;16.59;67.08
20624;BME280;10471;42.736;23.346;2022-10-16T10:17:52;96425.00;;;16.65;64.82
20624;BME280;10471;42.736;23.346;2022-10-16T10:20:34;96422.84;;;16.67;69.22
20624;BME280;10471;42.736;23.346;2022-10-16T10:23:01;96420.97;;;16.86;70.11
20624;BME280;10471;42.736;23.346;2022-10-16T10:28:10;96412.38;;;17.07;64.83
20624;BME280;10471;42.736;23.346;2022-10-16T10:33:22;96410.59;;;17.39;65.76
20624;BME280;10471;42.736;23.346;2022-10-16T10:35:59;96409.00;;;17.38;62.30
20624;BME280;10471;42.736;23.346;2022-10-16T10:44:26;96397.63;;;17.78;61.12
20624;BME280;10471;42.736;23.346;2022-10-16T10:46:57;96396.25;;;17.94;62.15
20624;BME280;10471;42.736;23.346;2022-10-16T11:07:59;96380.78;;;18.71;57.20
20624;BME280;10471;42.736;23.346;2022-10-16T11:10:50;96375.84;;;18.78;55.03
20624;BME280;10471;42.736;23.346;2022-10-16T11:13:36;96369.66;;;18.91;53.78
20624;BME280;10471;42.736;23.346;2022-10-16T11:16:18;96372.19;;;18.96;53.17
20624;BME280;10471;42.736;23.346;2022-10-16T11:21:16;96359.91;;;19.08;51.62
20624;BME280;10471;42.736;23.346;2022-10-16T11:24:09;96359.78;;;19.13;52.39
20624;BME280;10471;42.736;23.346;2022-10-16T11:26:41;96352.31;;;19.24;52.30
20624;BME280;10471;42.736;23.346;2022-10-16T11:29:15;96359.59;;;19.32;51.95
20624;BME280;10471;42.736;23.346;2022-10-16T11:31:51;96353.22;;;19.41;50.50
20624;BME280;10471;42.736;23.346;2022-10-16T11:37:09;96357.94;;;19.74;51.06
20624;BME280;10471;42.736;23.346;2022-10-16T11:39:36;96359.88;;;19.82;50.25
20624;BME280;10471;42.736;23.346;2022-10-16T11:42:19;96355.88;;;19.93;49.20
20624;BME280;10471;42.736;23.346;2022-10-16T11:45:23;96353.06;;;19.98;49.36
20624;BME280;10471;42.736;23.346;2022-10-16T11:48:00;96364.94;;;20.23;48.17
20624;BME280;10471;42.736;23.346;2022-10-16T11:50:43;96361.19;;;20.32;47.70
20624;BME280;10471;42.736;23.346;2022-10-16T11:53:24;96362.91;;;20.28;49.66
20624;BME280;10471;42.736;23.346;2022-10-16T11:55:56;96350.66;;;20.44;47.85
20624;BME280;10471;42.736;23.346;2022-10-16T11:59:12;96344.69;;;20.64;48.66
20624;BME280;10471;42.736;23.346;2022-10-16T12:01:28;96350.84;;;20.73;46.16
20624;BME280;10471;42.736;23.346;2022-10-16T12:06:41;96350.88;;;21.07;45.42
20624;BME280;10471;42.736;23.346;2022-10-16T12:09:27;96352.94;;;21.09;43.71
20624;BME280;10471;42.736;23.346;2022-10-16T12:11:53;96350.72;;;21.28;46.09
20624;BME280;10471;42.736;23.346;2022-10-16T12:14:32;96333.66;;;21.24;46.37
20624;BME280;10471;42.736;23.346;2022-10-16T12:17:04;96348.97;;;21.15;46.02
20624;BME280;10471;42.736;23.346;2022-10-16T12:20:01;96349.13;;;21.27;45.82
20624;BME280;10471;42.736;23.346;2022-10-16T12:22:47;96345.50;;;21.23;44.88
20624;BME280;10471;42.736;23.346;2022-10-16T12:25:34;96344.72;;;21.23;44.64
20624;BME280;10471;42.736;23.346;2022-10-16T12:28:01;96344.69;;;21.31;43.81
20624;BME280;10471;42.736;23.346;2022-10-16T12:30:31;96342.19;;;21.09;44.58
20624;BME280;10471;42.736;23.346;2022-10-16T12:32:59;96346.94;;;21.12;45.00
20624;BME280;10471;42.736;23.346;2022-10-16T12:35:30;96343.78;;;21.27;44.15
20624;BME280;10471;42.736;23.346;2022-10-16T12:38:12;96345.19;;;21.33;44.05
20624;BME280;10471;42.736;23.346;2022-10-16T12:40:41;96351.00;;;21.35;44.22
20624;BME280;10471;42.736;23.346;2022-10-16T12:43:36;96352.41;;;21.58;42.35
20624;BME280;10471;42.736;23.346;2022-10-16T12:46:05;96342.75;;;21.74;41.89
20624;BME280;10471;42.736;23.346;2022-10-16T12:48:45;96346.19;;;21.83;41.72
20624;BME280;10471;42.736;23.346;2022-10-16T12:54:15;96349.69;;;21.75;42.26
20624;BME280;10471;42.736;23.346;2022-10-16T13:13:01;96360.06;;;21.85;38.76
20624;BME280;10471;42.736;23.346;2022-10-16T13:15:56;96370.09;;;22.05;38.20
20624;BME280;10471;42.736;23.346;2022-10-16T13:27:12;96362.22;;;22.00;36.44
20624;BME280;10471;42.736;23.346;2022-10-16T13:29:41;96357.28;;;21.65;37.40
20624;BME280;10471;42.736;23.346;2022-10-16T13:32:10;96367.16;;;21.81;36.72
20624;BME280;10471;42.736;23.346;2022-10-16T13:34:45;96360.69;;;21.82;36.13
20624;BME280;10471;42.736;23.346;2022-10-16T13:37:22;96371.03;;;21.63;35.65
20624;BME280;10471;42.736;23.346;2022-10-16T13:39:48;96370.41;;;21.58;36.57
20624;BME280;10471;42.736;23.346;2022-10-16T13:42:25;96370.25;;;21.37;36.89
20624;BME280;10471;42.736;23.346;2022-10-16T13:44:53;96373.13;;;21.15;36.97
20624;BME280;10471;42.736;23.346;2022-10-16T13:47:21;96378.31;;;20.95;37.54
20624;BME280;10471;42.736;23.346;2022-10-16T13:49:59;96373.25;;;20.77;36.89
20624;BME280;10471;42.736;23.346;2022-10-16T13:52:25;96381.56;;;20.67;37.45
20624;BME280;10471;42.736;23.346;2022-10-16T13:54:51;96372.16;;;20.78;36.85
20624;BME280;10471;42.736;23.346;2022-10-16T13:57:17;96375.09;;;20.59;37.38
20624;BME280;10471;42.736;23.346;2022-10-16T13:59:43;96369.03;;;20.76;37.74
20624;BME280;10471;42.736;23.346;2022-10-16T14:05:01;96379.34;;;20.52;37.94
20624;BME280;10471;42.736;23.346;2022-10-16T14:07:30;96380.44;;;20.51;38.25
20624;BME280;10471;42.736;23.346;2022-10-16T14:10:02;96378.06;;;20.49;39.53
20624;BME280;10471;42.736;23.346;2022-10-16T14:12:28;96381.56;;;20.50;38.48
20624;BME280;10471;42.736;23.346;2022-10-16T14:14:55;96384.06;;;20.46;38.46
20624;BME280;10471;42.736;23.346;2022-10-16T14:17:35;96385.00;;;20.42;38.36
20624;BME280;10471;42.736;23.346;2022-10-16T14:20:03;96392.56;;;20.40;38.33
20624;BME280;10471;42.736;23.346;2022-10-16T14:25:01;96378.97;;;20.28;39.47
20624;BME280;10471;42.736;23.346;2022-10-16T14:27:35;96388.56;;;20.21;39.87
20624;BME280;10471;42.736;23.346;2022-10-16T14:30:21;96392.50;;;20.23;39.80
20624;BME280;10471;42.736;23.346;2022-10-16T14:35:34;96393.66;;;20.00;40.61
20624;BME280;10471;42.736;23.346;2022-10-16T14:38:01;96390.81;;;19.97;41.16
20624;BME280;10471;42.736;23.346;2022-10-16T14:40:32;96400.50;;;19.84;41.82
20624;BME280;10471;42.736;23.346;2022-10-16T14:42:59;96393.63;;;19.62;41.19
20624;BME280;10471;42.736;23.346;2022-10-16T14:45:28;96408.59;;;19.41;41.97
20624;BME280;10471;42.736;23.346;2022-10-16T14:48:05;96408.47;;;19.24;41.46
20624;BME280;10471;42.736;23.346;2022-10-16T14:50:39;96401.09;;;19.08;42.19